Burgoon, OH (43407)

11:49 AM EDT on June 03, 2015 (GMT -0400)
OHDOT | | Change Station
CLOSE
Current Station
Personal Weather Station
Location: Kansas, OH
Elevation: 735 ft
Nearby Weather Stations

Elev 735 ft 41.21 °N, 83.32 °W | Updated 29 minutes ago

Partly Cloudy
Partly Cloudy
68 °F
Feels Like 68 °F
N
7
Wind Variable Wind from NE
Gusts 12.0 mph

Today
High -- | Low -- °F
--% Chance of Precip.
Yesterday
High -- | Low -- °F
Precip. -- in
6:01 AM 9:01 PM
Full, 99% visible
Pressure 30.13 in
Visibility 10.0 miles
Clouds Few 2800 ft
Dew Point 54 °F
Humidity 59%
Rainfall in
Snow Depth Not available.
UV 7 out of 12
Pollen 7.90 out of 12
Air Quality Not available.
Flu Activity Sporadic
METAR KTDZ 031453Z AUTO 12009KT 10SM FEW028 20/11 A3013 RMK AO2 SLP202 T02000111 58000 TSNO

More Conditions Fewer Conditions

Pressure 30.13 in
Visibility 10.0 miles
Clouds Few 2800 ft
Dew Point 54 °F
Humidity 59%
Rainfall in
Snow Depth Not available.
UV 7 out of 12
Pollen 7.90 out of 12
Air Quality Not available.
Flu Activity Sporadic
METAR KTDZ 031453Z AUTO 12009KT 10SM FEW028 20/11 A3013 RMK AO2 SLP202 T02000111 58000 TSNO

More Conditions Fewer Conditions

10-Day Weather Forecast

×

Almanac

Astronomy

Jun. 03, 2015 Rise Set
Actual Time
Civil Twilight
Nautical Twilight
Astronomical Twilight
Moon
Length of Visible Light
Length of Day
Tomorrow will be .
, % of the Moon is Illuminated

Today's Extremes

State Highs State Lows

Community

WunderPhotos

Upload Photos

1,826,241 photos uploaded!

WunderBlogs® & News

Nearby

Air Quality

  Air Quality AQ Index Pollutant
Not available.

Snow Depth

Station Depth Elevation

Earthquake Activity

City Distance Mag. Time & Date
Minimum magnitude displayed is 2.5.

Coastal Water Temperatures

Place Temperature

Stations

Nearby Weather Stations

Station Location Temp. Windchill Dew Point Humidity Wind Precip. Elev Updated Type